createdAt,value
2023-01-09T00:01:28.350Z,37.34
2023-01-09T00:21:28.333Z,37.35
2023-01-09T00:41:28.314Z,37.38
2023-01-09T01:01:28.119Z,37.43
2023-01-09T01:21:28.265Z,37.48
2023-01-09T01:41:28.268Z,37.53
2023-01-09T02:01:28.349Z,37.6
2023-01-09T02:41:28.197Z,37.71
2023-01-09T03:01:28.343Z,37.75
2023-01-09T03:21:28.176Z,37.76
2023-01-09T03:41:28.160Z,37.77
2023-01-09T04:01:28.225Z,37.78
2023-01-09T04:21:28.129Z,37.8
2023-01-09T04:41:27.834Z,37.81
2023-01-09T05:01:27.970Z,37.81
2023-01-09T05:21:28.087Z,37.81
2023-01-09T05:41:28.061Z,37.81
2023-01-09T06:01:28.156Z,37.81
2023-01-09T06:21:28.032Z,37.82
2023-01-09T06:41:28.047Z,37.82
2023-01-09T07:01:28.144Z,37.81
2023-01-09T07:21:27.967Z,37.8
2023-01-09T07:41:27.759Z,37.8
2023-01-09T08:01:28.044Z,37.79
2023-01-09T08:21:27.957Z,37.79
2023-01-09T08:41:27.956Z,37.78
2023-01-09T09:01:27.918Z,38.08
2023-01-09T09:21:27.898Z,37.77
2023-01-09T09:41:27.882Z,37.94
2023-01-09T10:01:27.841Z,37.79
2023-01-09T10:21:27.910Z,38.06
2023-01-09T10:41:27.831Z,37.76
2023-01-09T11:01:27.814Z,37.76
2023-01-09T11:41:27.775Z,37.76
2023-01-09T12:01:27.766Z,37.75
2023-01-09T12:21:27.775Z,37.76
2023-01-09T13:01:27.704Z,37.74
2023-01-09T13:21:27.666Z,37.74
2023-01-09T13:41:27.667Z,37.74
2023-01-09T14:21:27.369Z,37.73
2023-01-09T15:21:27.595Z,37.72
2023-01-09T15:41:27.584Z,37.71
2023-01-09T16:01:27.601Z,37.73
2023-01-09T16:21:27.531Z,37.74
2023-01-09T18:21:27.453Z,37.88
2023-01-09T18:41:27.481Z,37.9
2023-01-09T19:01:27.512Z,37.92
2023-01-09T19:41:27.399Z,37.92
2023-01-09T20:21:27.416Z,37.93
2023-01-09T21:21:27.510Z,37.93
2023-01-09T22:01:27.303Z,37.92
2023-01-09T22:21:27.289Z,37.9
2023-01-09T22:41:27.271Z,37.91
2023-01-09T23:01:27.239Z,37.9
2023-01-09T23:21:27.248Z,37.89
2023-01-09T23:41:27.245Z,37.87
